Time;durP1;ratioP1;P1;durP2;ratioP2;P2;SDS_P1;SDS_P2;PMS_P1;PMS_P2;Temp;Humidity;BMP_temperature;BMP_pressure;BME280_temperature;BME280_humidity;BME280_pressure;Samples;Min_cycle;Max_cycle;Signal;HPM_P1;HPM_P2
2021/03/21 00:01:42;;;;;;;7.47;1.80;;;17.30;42.90;;;;;;5010236;28;20160;-82
2021/03/21 00:04:10;;;;;;;11.18;2.40;;;17.30;43.00;;;;;;4980548;28;20615;-82
2021/03/21 00:06:43;;;;;;;7.07;1.85;;;17.20;43.10;;;;;;4981593;28;20159;-82
2021/03/21 00:09:10;;;;;;;9.52;1.90;;;17.20;43.00;;;;;;5013411;28;20189;-82
2021/03/21 00:11:42;;;;;;;7.38;2.00;;;17.20;43.20;;;;;;4997154;28;20160;-82
2021/03/21 00:14:10;;;;;;;7.18;2.00;;;17.20;43.10;;;;;;5013220;28;20167;-82
2021/03/21 00:16:37;;;;;;;5.90;1.77;;;17.20;43.20;;;;;;4996665;28;20160;-82
2021/03/21 00:19:05;;;;;;;7.32;1.60;;;17.20;43.00;;;;;;5012298;28;20166;-82
2021/03/21 00:21:32;;;;;;;6.22;2.05;;;17.20;43.20;;;;;;4996637;28;20254;-82
2021/03/21 00:24:02;;;;;;;5.57;2.00;;;17.20;43.20;;;;;;4996358;28;20230;-82
2021/03/21 00:26:38;;;;;;;5.97;1.60;;;17.20;43.20;;;;;;4979749;28;20162;-82
2021/03/21 00:29:10;;;;;;;8.15;2.15;;;17.20;43.20;;;;;;4997069;28;20159;-82
2021/03/21 00:31:43;;;;;;;7.13;1.70;;;17.20;43.20;;;;;;4996510;28;20175;-82
2021/03/21 00:34:09;;;;;;;5.97;1.95;;;17.20;43.20;;;;;;4995869;28;20660;-82
2021/03/21 00:36:35;;;;;;;6.90;1.58;;;17.20;43.20;;;;;;5012603;28;20156;-82
2021/03/21 00:39:05;;;;;;;7.85;2.05;;;17.20;43.20;;;;;;4980354;28;20260;-82
2021/03/21 00:41:32;;;;;;;5.75;1.63;;;17.20;43.20;;;;;;5012527;28;20183;-82
2021/03/21 00:44:03;;;;;;;7.38;1.80;;;17.20;43.20;;;;;;4995708;28;20195;-82
2021/03/21 00:46:32;;;;;;;6.97;1.90;;;17.20;43.20;;;;;;5012431;28;20163;-82
2021/03/21 00:49:03;;;;;;;7.95;1.88;;;17.20;43.20;;;;;;4997227;28;20215;-82
2021/03/21 00:51:33;;;;;;;5.43;1.83;;;17.20;43.20;;;;;;4979703;28;20151;-82
2021/03/21 00:54:02;;;;;;;5.65;1.70;;;17.20;43.20;;;;;;4996267;28;20219;-82
2021/03/21 00:56:37;;;;;;;5.47;1.80;;;17.20;43.20;;;;;;4980025;28;20163;-82
2021/03/21 00:59:06;;;;;;;6.88;2.08;;;17.20;43.20;;;;;;4995136;28;20585;-82
2021/03/21 01:01:36;;;;;;;5.10;1.73;;;17.20;43.30;;;;;;4996820;28;20211;-82
2021/03/21 01:04:02;;;;;;;6.00;1.70;;;17.10;43.20;;;;;;4979989;28;20171;-82
2021/03/21 01:06:28;;;;;;;8.52;1.95;;;17.20;43.20;;;;;;4995789;28;20502;-82
2021/03/21 01:09:04;;;;;;;6.25;2.20;;;17.10;43.30;;;;;;4995075;28;20274;-82
2021/03/21 01:11:33;;;;;;;3.33;1.80;;;17.10;43.20;;;;;;4980389;28;20246;-82
2021/03/21 01:14:08;;;;;;;6.72;1.92;;;17.20;43.30;;;;;;4995035;28;20223;-82
2021/03/21 01:16:37;;;;;;;3.65;1.80;;;17.10;43.20;;;;;;4994885;28;20185;-82
2021/03/21 01:19:05;;;;;;;6.07;1.85;;;17.10;43.90;;;;;;4996190;28;20171;-82
2021/03/21 01:21:33;;;;;;;4.82;1.83;;;17.10;43.20;;;;;;4995232;28;20148;-82
2021/03/21 01:23:59;;;;;;;7.40;1.92;;;17.10;43.30;;;;;;4995611;28;20722;-82
2021/03/21 01:26:28;;;;;;;3.92;1.60;;;17.00;43.30;;;;;;4995329;28;20171;-82
2021/03/21 01:29:00;;;;;;;4.22;1.80;;;17.10;43.40;;;;;;4994960;28;20268;-82
2021/03/21 01:31:35;;;;;;;4.50;1.77;;;17.10;43.40;;;;;;4995559;28;20207;-82
2021/03/21 01:34:02;;;;;;;5.97;2.03;;;17.10;43.30;;;;;;5010923;28;20162;-82
2021/03/21 01:36:36;;;;;;;4.93;2.05;;;17.10;43.30;;;;;;4994534;28;20155;-82
2021/03/21 01:39:24;;;;;;;5.47;2.10;;;17.10;43.40;;;;;;4978490;28;20633;-82
2021/03/21 01:42:08;;;;;;;5.07;1.77;;;17.10;43.40;;;;;;4980001;28;20194;-82
2021/03/21 01:44:43;;;;;;;4.97;1.83;;;17.10;43.40;;;;;;5028449;28;20152;-82
2021/03/21 01:47:42;;;;;;;5.22;1.70;;;17.10;43.30;;;;;;5011280;28;20158;-82
2021/03/21 01:50:43;;;;;;;5.80;2.03;;;17.10;43.40;;;;;;5011686;28;20187;-82
2021/03/21 01:53:13;;;;;;;5.78;1.80;;;17.10;43.30;;;;;;4996824;28;20688;-82
2021/03/21 01:55:38;;;;;;;9.30;1.70;;;17.10;43.40;;;;;;4978954;28;20193;-82
2021/03/21 01:58:06;;;;;;;5.28;2.00;;;17.10;43.30;;;;;;4994718;28;20214;-82
2021/03/21 02:00:35;;;;;;;6.88;1.80;;;17.10;43.40;;;;;;4994642;28;20151;-82
2021/03/21 02:03:11;;;;;;;3.90;1.70;;;17.10;43.50;;;;;;4994351;28;20210;-82
2021/03/21 02:05:41;;;;;;;4.63;1.75;;;17.10;43.40;;;;;;4995160;28;20155;-81
2021/03/21 02:08:22;;;;;;;3.67;1.58;;;17.10;43.30;;;;;;5010404;28;20171;-82
2021/03/21 02:11:08;;;;;;;4.30;1.80;;;17.10;43.30;;;;;;5010416;28;20179;-82
2021/03/21 02:14:09;;;;;;;5.20;1.80;;;17.10;43.50;;;;;;4994611;28;20160;-82
2021/03/21 02:16:50;;;;;;;9.80;2.17;;;17.10;43.40;;;;;;5013216;28;20622;-82
2021/03/21 02:19:36;;;;;;;5.30;1.70;;;17.10;43.40;;;;;;4995587;28;20156;-81
2021/03/21 02:22:11;;;;;;;5.15;1.90;;;17.10;43.40;;;;;;5010648;28;20179;-82
2021/03/21 02:25:12;;;;;;;5.20;1.73;;;17.10;43.40;;;;;;5010263;28;20221;-82
2021/03/21 02:28:18;;;;;;;5.10;2.05;;;17.00;43.40;;;;;;5010388;28;20163;-82
2021/03/21 02:30:45;;;;;;;9.02;1.88;;;17.10;43.40;;;;;;5009957;28;20171;-82
2021/03/21 02:33:32;;;;;;;6.10;1.80;;;17.00;43.30;;;;;;4994168;28;20160;-82
2021/03/21 02:36:16;;;;;;;4.93;1.63;;;17.00;43.30;;;;;;5010068;28;20163;-82
2021/03/21 02:38:58;;;;;;;5.40;2.00;;;17.10;43.50;;;;;;5010017;28;20218;-82
2021/03/21 02:41:41;;;;;;;5.07;1.70;;;17.00;43.30;;;;;;4994800;28;20160;-82
2021/03/21 02:44:14;;;;;;;4.90;1.70;;;17.10;43.40;;;;;;4995416;28;20187;-82
2021/03/21 02:46:50;;;;;;;7.35;1.63;;;17.00;43.40;;;;;;5010673;28;20513;-82
2021/03/21 02:49:23;;;;;;;7.53;2.28;;;17.00;43.30;;;;;;4978174;28;20170;-82
2021/03/21 02:52:11;;;;;;;6.75;1.63;;;17.00;43.30;;;;;;5010858;28;20151;-82
2021/03/21 02:55:20;;;;;;;5.10;1.45;;;17.10;43.40;;;;;;4992773;28;20195;-82
2021/03/21 02:57:56;;;;;;;4.35;1.65;;;17.00;43.30;;;;;;4931474;29;20224;-82
2021/03/21 03:00:25;;;;;;;7.95;1.77;;;17.00;43.30;;;;;;4916139;29;20270;-82
2021/03/21 03:02:53;;;;;;;4.10;1.70;;;17.00;43.40;;;;;;4915996;29;20257;-82
2021/03/21 03:05:33;;;;;;;5.85;1.80;;;17.00;43.30;;;;;;4900148;29;20188;-82
2021/03/21 03:08:03;;;;;;;2.70;1.42;;;17.00;43.40;;;;;;4901496;29;20260;-82
2021/03/21 03:11:14;;;;;;;4.10;1.63;;;17.00;43.40;;;;;;4931892;29;20159;-82
2021/03/21 03:14:02;;;;;;;5.80;1.67;;;17.00;43.50;;;;;;4930772;29;20625;-82
2021/03/21 03:17:14;;;;;;;4.30;1.48;;;17.00;44.10;;;;;;4914285;29;20162;-81
2021/03/21 03:19:51;;;;;;;4.97;1.60;;;17.00;43.50;;;;;;4860297;29;20655;-81
2021/03/21 03:22:21;;;;;;;6.53;2.15;;;17.00;43.50;;;;;;4856677;29;20165;-81
2021/03/21 03:25:13;;;;;;;5.13;1.73;;;17.00;43.50;;;;;;4840883;29;20349;-81
2021/03/21 03:27:49;;;;;;;6.50;1.70;;;17.00;43.50;;;;;;4871702;29;20685;-81
2021/03/21 03:30:25;;;;;;;2.55;1.50;;;17.00;43.30;;;;;;4872007;29;20200;-81
2021/03/21 03:32:55;;;;;;;7.05;2.08;;;17.00;43.50;;;;;;4878721;29;20190;-81
2021/03/21 03:35:21;;;;;;;7.28;1.80;;;17.00;43.60;;;;;;4930330;29;20261;-81
2021/03/21 03:37:47;;;;;;;8.75;1.95;;;17.00;43.40;;;;;;4914660;29;20304;-81
2021/03/21 03:40:13;;;;;;;5.00;1.80;;;17.00;43.50;;;;;;4931167;29;20185;-81
2021/03/21 03:42:50;;;;;;;4.65;1.50;;;17.00;43.30;;;;;;4915632;29;20271;-81
2021/03/21 03:45:47;;;;;;;5.55;1.75;;;17.00;43.40;;;;;;4946883;29;20782;-81
2021/03/21 03:48:35;;;;;;;5.32;1.77;;;17.00;43.50;;;;;;4931075;29;20166;-81
2021/03/21 03:51:13;;;;;;;3.80;1.55;;;17.00;43.40;;;;;;4947042;29;20592;-81
2021/03/21 03:54:01;;;;;;;3.10;1.60;;;17.00;43.30;;;;;;4931015;29;20165;-82
2021/03/21 03:56:40;;;;;;;2.72;1.42;;;17.00;43.50;;;;;;4986536;28;20186;-81
2021/03/21 03:59:14;;;;;;;3.38;1.38;;;17.00;43.40;;;;;;5008822;28;20170;-82
2021/03/21 04:02:07;;;;;;;3.78;1.35;;;17.00;43.40;;;;;;5008792;28;20628;-81
2021/03/21 04:04:52;;;;;;;2.20;1.45;;;16.90;43.50;;;;;;4930950;29;20178;-81
2021/03/21 04:07:43;;;;;;;4.30;1.52;;;16.90;43.50;;;;;;4946441;29;20250;-81
2021/03/21 04:10:20;;;;;;;3.83;1.77;;;16.90;43.60;;;;;;4946623;29;20189;-80
2021/03/21 04:13:08;;;;;;;6.03;1.60;;;16.90;43.40;;;;;;4930958;29;20170;-81
2021/03/21 04:15:49;;;;;;;4.50;1.83;;;16.90;43.40;;;;;;4946865;29;20194;-81
2021/03/21 04:18:38;;;;;;;3.58;1.60;;;16.90;43.40;;;;;;4931192;29;20653;-81
2021/03/21 04:21:33;;;;;;;3.33;1.52;;;16.90;43.50;;;;;;4950256;29;20186;-82
2021/03/21 04:24:21;;;;;;;4.65;1.50;;;16.90;43.40;;;;;;4949809;29;20226;-81
2021/03/21 04:27:07;;;;;;;5.25;2.17;;;16.90;43.40;;;;;;4947264;29;20280;-81
2021/03/21 04:30:21;;;;;;;2.63;1.35;;;17.00;43.50;;;;;;4950496;29;20193;-81
2021/03/21 04:32:51;;;;;;;2.88;1.48;;;16.90;43.30;;;;;;4927643;29;20190;-81
2021/03/21 04:35:44;;;;;;;4.78;1.40;;;16.90;43.40;;;;;;4921289;29;20205;-81
2021/03/21 04:38:43;;;;;;;3.78;1.63;;;16.90;43.50;;;;;;4926636;29;20210;-81
2021/03/21 04:41:46;;;;;;;5.45;1.70;;;16.90;43.50;;;;;;4927985;29;20182;-81
2021/03/21 04:44:50;;;;;;;4.57;1.50;;;16.90;43.40;;;;;;4950446;29;20181;-81
2021/03/21 04:47:41;;;;;;;5.65;1.67;;;16.90;43.50;;;;;;4966343;28;20172;-81
2021/03/21 04:50:34;;;;;;;2.55;1.40;;;16.90;43.30;;;;;;4937307;29;20186;-81
2021/03/21 04:53:44;;;;;;;7.30;2.10;;;16.90;43.40;;;;;;4968820;29;20181;-81
2021/03/21 04:56:17;;;;;;;4.43;1.38;;;16.90;43.40;;;;;;4953092;29;20261;-81
2021/03/21 04:59:13;;;;;;;5.30;1.60;;;16.90;43.40;;;;;;4953427;29;20197;-81
2021/03/21 05:02:10;;;;;;;3.65;1.50;;;16.90;43.40;;;;;;4936426;29;20181;-81
2021/03/21 05:04:58;;;;;;;3.47;1.58;;;16.90;43.50;;;;;;4937506;29;20164;-81
2021/03/21 05:07:41;;;;;;;2.75;1.40;;;16.90;43.30;;;;;;4936961;29;20233;-81
2021/03/21 05:10:21;;;;;;;2.85;1.30;;;16.90;43.40;;;;;;4995366;28;20294;-81
2021/03/21 05:13:02;;;;;;;3.78;1.52;;;16.90;43.30;;;;;;4996840;28;20162;-81
2021/03/21 05:15:51;;;;;;;4.13;1.40;;;16.90;43.40;;;;;;4996042;28;20170;-81
2021/03/21 05:18:38;;;;;;;6.22;1.90;;;16.90;43.30;;;;;;4952813;29;20217;-81
2021/03/21 05:21:26;;;;;;;5.13;1.42;;;16.90;43.20;;;;;;4952431;29;20157;-81
2021/03/21 05:24:20;;;;;;;3.53;1.50;;;17.00;43.30;;;;;;4950219;29;20213;-82
2021/03/21 05:27:02;;;;;;;3.97;1.58;;;16.90;43.40;;;;;;4922392;29;20322;-82
2021/03/21 05:29:46;;;;;;;6.00;1.73;;;16.90;43.30;;;;;;4952390;29;20185;-82
2021/03/21 05:32:28;;;;;;;4.65;1.70;;;16.90;43.30;;;;;;4921561;29;20173;-82
2021/03/21 05:35:04;;;;;;;2.47;1.65;;;16.90;43.30;;;;;;4952369;29;20169;-82
2021/03/21 05:37:53;;;;;;;4.85;1.48;;;16.90;43.30;;;;;;4936531;29;20212;-82
2021/03/21 05:41:14;;;;;;;5.93;1.60;;;16.90;43.30;;;;;;4969151;29;20158;-82
2021/03/21 05:44:14;;;;;;;2.65;1.45;;;16.90;43.30;;;;;;4911638;29;20185;-82
2021/03/21 05:46:56;;;;;;;4.15;1.30;;;17.00;43.30;;;;;;4911115;29;20176;-82
2021/03/21 05:49:52;;;;;;;3.65;1.40;;;17.00;43.30;;;;;;4895724;29;20694;-82
2021/03/21 05:53:06;;;;;;;4.95;1.60;;;17.00;43.10;;;;;;4910956;29;20796;-82
2021/03/21 05:55:56;;;;;;;4.10;1.50;;;17.00;43.10;;;;;;4943991;29;20318;-82
2021/03/21 05:59:01;;;;;;;4.03;1.50;;;17.10;43.10;;;;;;4891821;29;20216;-82
2021/03/21 06:02:07;;;;;;;2.95;1.42;;;17.10;43.10;;;;;;4892516;29;20224;-82
2021/03/21 06:05:21;;;;;;;4.72;1.42;;;17.10;43.10;;;;;;4891884;29;20271;-82
2021/03/21 06:08:13;;;;;;;4.90;1.60;;;17.10;42.90;;;;;;4839841;29;20197;-82
2021/03/21 06:11:03;;;;;;;5.70;1.60;;;17.10;42.80;;;;;;4841807;29;20730;-82
2021/03/21 06:14:14;;;;;;;6.47;1.33;;;17.10;42.80;;;;;;4854972;29;20181;-82
2021/03/21 06:17:11;;;;;;;4.15;1.70;;;17.20;42.70;;;;;;4857498;29;20193;-82
2021/03/21 06:20:13;;;;;;;5.30;1.58;;;17.20;42.70;;;;;;4876499;29;20175;-82
2021/03/21 06:22:48;;;;;;;3.95;1.50;;;17.20;42.60;;;;;;4876280;29;20284;-82
2021/03/21 06:25:58;;;;;;;2.00;1.25;;;17.20;42.60;;;;;;4891925;29;20242;-82
2021/03/21 06:29:01;;;;;;;2.95;1.42;;;17.20;42.60;;;;;;4875824;29;20199;-82
2021/03/21 06:31:47;;;;;;;3.35;1.52;;;17.20;42.90;;;;;;4891446;29;20595;-82
2021/03/21 06:34:52;;;;;;;6.60;1.80;;;17.20;43.30;;;;;;4861163;29;20635;-82
2021/03/21 06:37:55;;;;;;;4.90;1.40;;;17.30;43.00;;;;;;4839027;29;20217;-82
2021/03/21 06:40:42;;;;;;;3.35;1.52;;;17.20;42.90;;;;;;4873500;29;20237;-82
2021/03/21 06:43:42;;;;;;;2.35;1.20;;;17.30;43.00;;;;;;4860669;29;20173;-82
2021/03/21 06:46:27;;;;;;;5.25;1.67;;;17.40;42.80;;;;;;4928123;29;20167;-82
2021/03/21 06:49:26;;;;;;;2.85;1.40;;;17.40;42.80;;;;;;4912758;29;20650;-82
2021/03/21 06:52:04;;;;;;;4.97;1.50;;;17.30;42.70;;;;;;4912935;29;20163;-82
2021/03/21 06:54:53;;;;;;;2.58;1.50;;;17.40;42.50;;;;;;4913340;29;20198;-82
2021/03/21 06:57:22;;;;;;;2.83;1.63;;;17.40;42.50;;;;;;4897035;29;20274;-81
2021/03/21 07:00:23;;;;;;;2.00;1.23;;;17.40;42.40;;;;;;4928976;29;20286;-81
2021/03/21 07:03:31;;;;;;;3.95;1.50;;;17.40;42.20;;;;;;4928492;29;20163;-82
2021/03/21 07:06:24;;;;;;;2.83;1.50;;;17.40;42.20;;;;;;4929584;29;20281;-81
2021/03/21 07:09:05;;;;;;;3.88;1.45;;;17.50;42.20;;;;;;4928815;29;20170;-82
2021/03/21 07:11:53;;;;;;;4.18;1.60;;;17.50;42.20;;;;;;4927115;29;20173;-82
2021/03/21 07:14:52;;;;;;;4.53;1.90;;;17.40;42.20;;;;;;5009726;28;20160;-82
2021/03/21 07:17:54;;;;;;;2.88;1.60;;;17.50;42.20;;;;;;4947129;29;20217;-82
2021/03/21 07:20:34;;;;;;;2.85;1.52;;;17.50;42.30;;;;;;4966123;29;20173;-81
2021/03/21 07:23:30;;;;;;;4.47;1.48;;;17.60;42.10;;;;;;4950640;29;20353;-82
2021/03/21 07:26:43;;;;;;;3.55;1.50;;;17.60;42.00;;;;;;4950803;29;20173;-83
2021/03/21 07:29:50;;;;;;;5.57;1.50;;;17.70;41.90;;;;;;4947182;29;20243;-82
2021/03/21 07:33:03;;;;;;;6.50;1.40;;;17.60;41.90;;;;;;4965827;29;20649;-80
2021/03/21 07:36:16;;;;;;;3.72;1.40;;;17.70;41.80;;;;;;4965886;29;20166;-81
2021/03/21 07:39:13;;;;;;;3.25;1.40;;;17.60;41.80;;;;;;4965217;29;20276;-81
2021/03/21 07:42:38;;;;;;;4.38;1.67;;;17.80;41.40;;;;;;4965880;29;20208;-82
2021/03/21 07:45:31;;;;;;;3.65;1.38;;;17.70;41.40;;;;;;4950572;29;20241;-83
2021/03/21 07:48:26;;;;;;;3.17;1.50;;;17.80;41.40;;;;;;4949483;29;20300;-81
2021/03/21 07:51:12;;;;;;;3.80;1.90;;;17.80;41.30;;;;;;4959875;29;20192;-83
2021/03/21 07:54:27;;;;;;;4.00;1.33;;;17.80;41.40;;;;;;4995924;28;20190;-82
2021/03/21 07:57:18;;;;;;;5.90;1.50;;;17.80;42.10;;;;;;4930045;29;20181;-82
2021/03/21 08:00:13;;;;;;;4.13;1.55;;;17.90;41.40;;;;;;4944903;29;20162;-80
2021/03/21 08:03:08;;;;;;;3.63;1.38;;;17.90;41.30;;;;;;4930962;29;20193;-82
2021/03/21 08:05:55;;;;;;;5.75;1.77;;;17.90;41.20;;;;;;4947062;29;20158;-82
2021/03/21 08:08:37;;;;;;;4.30;1.40;;;17.90;41.00;;;;;;4930180;29;20182;-81
2021/03/21 08:11:24;;;;;;;3.42;1.25;;;17.90;41.00;;;;;;4914694;29;20566;-82
2021/03/21 08:14:31;;;;;;;4.70;1.50;;;17.80;41.30;;;;;;4929658;29;20558;-82
2021/03/21 08:17:27;;;;;;;5.63;1.60;;;17.80;41.20;;;;;;4944207;29;20204;-82
2021/03/21 08:20:39;;;;;;;4.63;1.52;;;18.00;40.90;;;;;;4931065;29;20182;-82
2021/03/21 08:23:25;;;;;;;12.38;2.28;;;18.00;40.90;;;;;;4948385;29;20169;-81
2021/03/21 08:25:59;;;;;;;12.32;1.90;;;18.00;41.10;;;;;;4934321;29;20222;-81
2021/03/21 08:28:35;;;;;;;13.77;2.30;;;18.10;40.80;;;;;;4919560;29;20173;-81
2021/03/21 08:31:29;;;;;;;16.65;2.30;;;18.10;40.90;;;;;;4934150;29;20178;-81
2021/03/21 08:34:16;;;;;;;15.18;2.67;;;18.20;40.90;;;;;;4980261;28;20194;-81
2021/03/21 08:37:18;;;;;;;15.75;2.20;;;18.20;40.70;;;;;;5008204;28;20192;-81
2021/03/21 08:39:50;;;;;;;25.92;3.15;;;18.20;40.80;;;;;;4992074;28;20175;-82
2021/03/21 08:42:42;;;;;;;22.65;2.95;;;18.20;40.80;;;;;;4976340;28;20611;-80
2021/03/21 08:45:36;;;;;;;39.20;3.40;;;18.30;40.80;;;;;;4975140;28;20168;-81
2021/03/21 08:48:13;;;;;;;39.25;3.42;;;18.30;41.00;;;;;;4976264;28;20183;-81
2021/03/21 08:50:45;;;;;;;33.33;3.22;;;18.20;41.40;;;;;;4992828;28;20187;-81
2021/03/21 08:53:53;;;;;;;33.15;3.13;;;18.10;41.50;;;;;;4975330;28;20498;-81
2021/03/21 08:56:56;;;;;;;29.52;2.83;;;18.10;41.50;;;;;;5008841;28;20243;-82
2021/03/21 08:59:37;;;;;;;34.75;3.45;;;18.00;41.10;;;;;;5009647;28;20160;-81
2021/03/21 09:02:18;;;;;;;20.52;2.58;;;18.10;40.80;;;;;;5008346;28;20184;-80
2021/03/21 09:05:04;;;;;;;30.25;2.92;;;18.10;40.90;;;;;;4975197;28;20159;-81
2021/03/21 09:07:32;;;;;;;31.80;2.97;;;18.00;41.00;;;;;;4991117;28;20555;-81
2021/03/21 09:10:31;;;;;;;25.92;3.13;;;17.90;40.90;;;;;;4975093;28;20164;-81
2021/03/21 09:13:11;;;;;;;32.17;2.92;;;18.00;39.90;;;;;;4991438;28;20163;-81
2021/03/21 09:15:39;;;;;;;28.27;2.80;;;18.00;40.70;;;;;;4990917;28;20523;-81
2021/03/21 09:18:11;;;;;;;29.80;2.72;;;18.00;40.50;;;;;;4975099;28;20192;-81
2021/03/21 09:20:38;;;;;;;36.95;3.20;;;18.10;40.90;;;;;;4974642;28;20157;-81
2021/03/21 09:23:23;;;;;;;26.40;3.78;;;18.10;41.00;;;;;;4973982;28;20170;-81
2021/03/21 09:25:57;;;;;;;27.58;2.85;;;18.10;40.90;;;;;;5008406;28;20223;-80
2021/03/21 09:28:27;;;;;;;39.80;3.42;;;18.20;40.80;;;;;;4993598;28;20546;-81
2021/03/21 09:30:53;;;;;;;25.05;2.95;;;18.20;41.00;;;;;;4991209;28;20160;-80
2021/03/21 09:33:27;;;;;;;33.92;3.47;;;18.20;41.20;;;;;;4990443;28;20623;-80
2021/03/21 09:36:14;;;;;;;30.90;2.55;;;18.10;41.00;;;;;;4991003;28;20155;-80
2021/03/21 09:39:02;;;;;;;31.40;3.20;;;18.20;41.00;;;;;;4992415;28;20222;-81
2021/03/21 09:41:28;;;;;;;36.70;2.70;;;18.20;41.10;;;;;;4977453;28;20168;-80
2021/03/21 09:43:58;;;;;;;45.90;3.75;;;18.20;40.90;;;;;;4992193;28;20148;-80
2021/03/21 09:46:30;;;;;;;34.30;2.85;;;18.30;41.00;;;;;;4991149;28;20159;-79
2021/03/21 09:52:42;;;;;;;40.95;3.47;;;18.20;40.70;;;;;;5021131;28;20240;-82
2021/03/21 09:55:17;;;;;;;40.95;3.00;;;18.30;40.30;;;;;;5026811;28;20171;-82
2021/03/21 09:58:13;;;;;;;58.13;4.22;;;18.20;40.90;;;;;;5008416;28;20214;-80
2021/03/21 10:01:05;;;;;;;37.85;3.50;;;18.20;41.70;;;;;;5008471;28;20179;-84
2021/03/21 10:03:34;;;;;;;45.55;4.70;;;18.10;41.40;;;;;;4993413;28;20163;-82
2021/03/21 10:06:16;;;;;;;46.80;3.58;;;18.10;41.60;;;;;;4993074;28;20231;-81
2021/03/21 10:08:48;;;;;;;43.97;3.88;;;18.10;41.60;;;;;;4992564;28;20179;-83
2021/03/21 10:11:43;;;;;;;49.92;3.67;;;18.10;41.50;;;;;;5009423;28;20167;-83
2021/03/21 10:14:27;;;;;;;46.50;3.72;;;18.10;42.20;;;;;;4990131;28;20179;-83
2021/03/21 10:16:58;;;;;;;51.13;4.55;;;18.10;42.70;;;;;;5010848;28;20509;-83
2021/03/21 10:19:46;;;;;;;44.90;4.18;;;18.10;42.60;;;;;;4995271;28;20160;-83
2021/03/21 10:22:26;;;;;;;44.85;4.20;;;18.10;41.80;;;;;;5008830;28;20174;-85
2021/03/21 10:25:01;;;;;;;35.10;3.78;;;18.20;42.40;;;;;;5025694;28;20816;-82
2021/03/21 10:27:48;;;;;;;46.75;4.47;;;18.20;41.50;;;;;;4979692;28;20186;-86
2021/03/21 10:31:00;;;;;;;45.90;3.40;;;18.20;41.80;;;;;;4996039;28;20159;-84
2021/03/21 10:33:29;;;;;;;27.05;3.63;;;18.30;41.90;;;;;;5011137;28;20159;-86
2021/03/21 10:35:59;;;;;;;31.70;3.05;;;18.20;42.40;;;;;;4992579;28;20160;-85
2021/03/21 10:38:59;;;;;;;40.55;3.55;;;18.30;42.40;;;;;;5009321;28;20194;-86
2021/03/21 10:42:36;;;;;;;30.05;3.40;;;18.40;42.10;;;;;;5014574;28;20230;-86
2021/03/21 10:45:09;;;;;;;41.17;3.88;;;18.30;42.30;;;;;;5031888;28;20202;-84
2021/03/21 10:47:36;;;;;;;36.15;2.88;;;18.40;41.80;;;;;;5011780;28;20627;-83
2021/03/21 10:50:29;;;;;;;37.13;3.78;;;18.40;42.00;;;;;;5009499;28;20187;-83
2021/03/21 10:53:31;;;;;;;32.67;3.45;;;18.30;42.10;;;;;;4995553;28;20653;-84
2021/03/21 10:56:01;;;;;;;38.25;3.38;;;18.20;42.20;;;;;;5026988;28;20166;-83
2021/03/21 10:58:52;;;;;;;26.80;3.03;;;18.20;42.40;;;;;;4992372;28;20730;-82
2021/03/21 11:01:26;;;;;;;23.42;2.92;;;18.20;42.40;;;;;;5008397;28;20179;-85
2021/03/21 11:03:58;;;;;;;40.10;3.40;;;18.20;42.30;;;;;;5008074;28;20222;-81
2021/03/21 11:06:29;;;;;;;39.40;3.47;;;18.20;42.30;;;;;;5008172;28;20167;-83
2021/03/21 11:09:15;;;;;;;39.92;3.22;;;18.20;42.40;;;;;;5008646;28;20187;-85
2021/03/21 11:11:51;;;;;;;42.78;3.78;;;18.20;42.60;;;;;;4993387;28;20175;-83
2021/03/21 11:14:39;;;;;;;43.42;3.55;;;18.20;42.50;;;;;;5008930;28;20162;-83
2021/03/21 11:17:19;;;;;;;37.50;3.83;;;18.20;42.70;;;;;;5004695;28;20194;-84
2021/03/21 11:20:14;;;;;;;36.83;3.10;;;18.20;42.70;;;;;;4989688;28;20163;-82
2021/03/21 11:22:42;;;;;;;51.08;3.90;;;18.20;42.80;;;;;;5007269;28;20179;-84
2021/03/21 11:25:14;;;;;;;32.97;3.47;;;18.20;42.90;;;;;;4993272;28;20226;-84
2021/03/21 11:27:50;;;;;;;29.35;2.63;;;18.20;42.90;;;;;;4976427;28;20179;-82
2021/03/21 11:30:28;;;;;;;41.15;4.28;;;18.30;42.90;;;;;;4994298;28;20194;-84
2021/03/21 11:33:25;;;;;;;37.17;3.58;;;18.30;42.60;;;;;;4994031;28;20630;-84
2021/03/21 11:36:19;;;;;;;28.80;2.78;;;18.30;42.70;;;;;;4990461;28;20160;-83
2021/03/21 11:42:43;;;;;;;34.97;3.15;;;18.30;42.80;;;;;;5011367;28;20164;-82
2021/03/21 11:45:53;;;;;;;36.40;3.50;;;18.30;42.80;;;;;;5009026;28;20159;-82
2021/03/21 11:51:56;;;;;;;56.90;4.57;;;18.30;42.80;;;;;;5009173;28;20151;-81
2021/03/21 11:54:58;;;;;;;59.97;4.25;;;18.40;43.10;;;;;;4995230;28;20189;-82
2021/03/21 11:58:12;;;;;;;43.35;4.22;;;18.30;42.60;;;;;;4993449;28;20200;-82
2021/03/21 12:01:11;;;;;;;30.52;3.50;;;18.40;42.80;;;;;;4973703;29;20192;-83
2021/03/21 12:03:55;;;;;;;32.92;2.83;;;18.40;42.70;;;;;;4930242;29;20185;-83
2021/03/21 12:06:41;;;;;;;42.13;4.47;;;18.50;42.70;;;;;;4954908;29;20200;-83
2021/03/21 12:09:52;;;;;;;32.25;3.50;;;18.40;43.20;;;;;;4953977;29;20241;-83
2021/03/21 12:13:02;;;;;;;37.90;4.05;;;18.40;42.90;;;;;;4953090;29;20674;-83
2021/03/21 12:16:31;;;;;;;48.55;3.72;;;18.40;43.10;;;;;;4958213;29;20177;-82
2021/03/21 12:19:28;;;;;;;57.05;4.80;;;18.50;43.10;;;;;;4955745;29;20337;-82
2021/03/21 12:22:01;;;;;;;55.88;4.97;;;18.50;42.80;;;;;;4953757;29;20185;-83
2021/03/21 12:24:38;;;;;;;93.57;5.80;;;18.50;42.90;;;;;;4959138;28;20204;-81
2021/03/21 12:27:53;;;;;;;66.75;4.78;;;18.50;42.70;;;;;;4974344;29;20195;-82
2021/03/21 12:30:58;;;;;;;56.95;4.32;;;18.60;42.60;;;;;;4977290;29;20200;-81
2021/03/21 12:33:38;;;;;;;59.13;5.15;;;18.50;43.30;;;;;;4978084;28;20187;-83
2021/03/21 12:36:06;;;;;;;46.78;4.03;;;18.40;43.40;;;;;;4956548;28;20176;-83
2021/03/21 12:38:47;;;;;;;41.67;4.30;;;18.40;43.20;;;;;;4986985;28;20208;-82
2021/03/21 12:48:07;;;;;;;40.20;3.75;;;18.50;43.70;;;;;;4987589;28;20226;-81
2021/03/21 12:50:54;;;;;;;26.58;3.00;;;18.40;43.40;;;;;;5029731;28;20224;-82
2021/03/21 12:53:23;;;;;;;33.20;3.20;;;18.50;43.10;;;;;;4996219;28;20188;-81
2021/03/21 12:56:09;;;;;;;32.85;3.10;;;18.50;43.40;;;;;;4997355;28;20156;-80
2021/03/21 12:58:45;;;;;;;40.63;3.85;;;18.50;43.30;;;;;;4993262;28;20206;-82
2021/03/21 13:01:13;;;;;;;50.60;3.70;;;18.50;43.60;;;;;;4989134;28;20676;-82
2021/03/21 13:07:06;;;;;;;48.80;3.80;;;18.60;43.40;;;;;;5027442;28;20230;-82
2021/03/21 13:09:54;;;;;;;41.60;4.38;;;18.50;43.40;;;;;;5012100;28;20246;-81
2021/03/21 13:12:20;;;;;;;37.55;3.85;;;18.50;43.80;;;;;;5000414;28;20193;-81
2021/03/21 13:14:58;;;;;;;42.67;4.30;;;18.50;43.70;;;;;;4980794;28;20208;-82
2021/03/21 13:17:30;;;;;;;33.40;3.35;;;18.50;43.80;;;;;;4991729;28;20186;-82
2021/03/21 13:19:55;;;;;;;37.17;3.28;;;18.40;44.50;;;;;;4997060;28;20183;-83
2021/03/21 13:22:36;;;;;;;31.13;3.22;;;18.40;44.10;;;;;;5011695;28;20151;-82
2021/03/21 13:25:12;;;;;;;41.00;3.65;;;18.40;43.60;;;;;;5015190;28;20211;-82
2021/03/21 13:27:44;;;;;;;30.02;3.63;;;18.40;44.20;;;;;;4982072;28;20225;-82
2021/03/21 13:30:21;;;;;;;26.45;3.35;;;18.40;44.20;;;;;;4972342;28;20187;-82
2021/03/21 13:32:51;;;;;;;31.23;3.92;;;18.40;44.10;;;;;;4976686;28;20222;-82
2021/03/21 13:35:20;;;;;;;37.28;3.47;;;18.50;43.90;;;;;;4990352;28;20187;-82
2021/03/21 13:37:45;;;;;;;37.45;3.38;;;18.40;44.20;;;;;;4998120;28;20194;-83
2021/03/21 13:40:12;;;;;;;32.47;3.13;;;18.40;44.60;;;;;;4993928;28;20178;-83
2021/03/21 13:42:38;;;;;;;33.47;3.40;;;18.40;44.60;;;;;;4989826;28;20175;-82
2021/03/21 13:45:05;;;;;;;44.75;3.15;;;18.30;44.40;;;;;;4989317;28;20214;-81
2021/03/21 13:47:32;;;;;;;28.88;3.88;;;18.30;44.50;;;;;;5005278;28;20166;-81
2021/03/21 13:50:01;;;;;;;41.17;3.30;;;18.30;44.50;;;;;;4985740;28;20179;-82
2021/03/21 13:52:26;;;;;;;32.45;3.08;;;18.30;44.30;;;;;;4994803;28;20179;-81
2021/03/21 13:54:52;;;;;;;37.88;3.28;;;18.30;44.40;;;;;;4982281;28;20251;-81
2021/03/21 13:57:21;;;;;;;31.80;3.10;;;18.30;44.50;;;;;;4982865;28;20195;-81
2021/03/21 13:59:48;;;;;;;38.33;3.55;;;18.40;44.40;;;;;;4977555;28;20159;-81
2021/03/21 14:02:14;;;;;;;24.55;3.15;;;18.40;44.40;;;;;;5008233;28;20158;-80
2021/03/21 14:04:40;;;;;;;20.60;2.80;;;18.40;44.80;;;;;;4992524;28;20610;-80
2021/03/21 14:07:10;;;;;;;28.25;4.13;;;18.40;44.20;;;;;;4976210;28;20175;-80
2021/03/21 14:09:42;;;;;;;18.90;3.40;;;18.40;44.10;;;;;;4995821;28;20510;-80
2021/03/21 14:12:16;;;;;;;30.20;2.95;;;18.50;44.70;;;;;;5014879;28;20164;-82
2021/03/21 14:14:43;;;;;;;21.80;3.05;;;18.50;43.70;;;;;;5010328;28;20152;-81
2021/03/21 14:17:09;;;;;;;33.85;3.00;;;18.50;43.10;;;;;;4991516;28;20163;-81
2021/03/21 14:19:35;;;;;;;27.20;3.28;;;18.60;44.30;;;;;;4988417;28;20186;-81
2021/03/21 14:22:01;;;;;;;27.50;3.03;;;18.50;44.10;;;;;;4973924;28;20170;-81
2021/03/21 14:24:27;;;;;;;27.20;2.97;;;18.40;43.90;;;;;;4992500;28;20219;-81
2021/03/21 14:26:53;;;;;;;25.95;3.67;;;18.50;44.20;;;;;;4974282;28;20222;-81